Time;durP1;ratioP1;P1;durP2;ratioP2;P2;SDS_P1;SDS_P2;PMS_P1;PMS_P2;Temp;Humidity;BMP_temperature;BMP_pressure;BME280_temperature;BME280_humidity;BME280_pressure;Samples;Min_cycle;Max_cycle;Signal;HPM_P1;HPM_P2
2023/01/16 00:01:12;;;;;;;0.30;0.30;;;;;;;6.32;100.00;98827.88;5056195;23;20498;-56
2023/01/16 00:03:38;;;;;;;0.30;0.20;;;;;;;6.55;100.00;98822.63;5069641;28;20446;-56
2023/01/16 00:06:05;;;;;;;0.30;0.20;;;;;;;6.43;100.00;98825.69;5072096;28;20953;-56
2023/01/16 00:08:32;;;;;;;0.30;0.20;;;;;;;6.53;100.00;98814.75;5072375;28;20454;-56
2023/01/16 00:10:58;;;;;;;1.07;1.07;;;;;;;6.51;100.00;98806.03;5071002;28;20489;-56
2023/01/16 00:13:24;;;;;;;0.33;0.23;;;;;;;6.56;100.00;98802.34;5059070;28;20949;-56
2023/01/16 00:15:51;;;;;;;0.30;0.20;;;;;;;6.49;100.00;98799.09;5060593;28;20451;-56
2023/01/16 00:18:18;;;;;;;1.13;0.30;;;;;;;6.58;100.00;98789.97;5065859;28;20454;-56
2023/01/16 00:20:47;;;;;;;0.40;0.40;;;;;;;6.60;100.00;98785.50;5063907;28;20514;-56
2023/01/16 00:23:15;;;;;;;0.30;0.20;;;;;;;6.78;100.00;98769.84;5058742;28;20453;-56
2023/01/16 00:25:43;;;;;;;0.30;0.20;;;;;;;6.55;100.00;98772.47;5059589;28;21039;-56
2023/01/16 00:28:11;;;;;;;0.40;0.40;;;;;;;6.56;100.00;98771.53;5065526;28;20515;-56
2023/01/16 00:30:38;;;;;;;0.47;0.30;;;;;;;6.57;100.00;98772.41;5064565;28;20997;-56
2023/01/16 00:33:05;;;;;;;1.17;0.47;;;;;;;6.69;100.00;98767.53;5058335;28;20442;-55
2023/01/16 00:35:32;;;;;;;0.47;0.47;;;;;;;6.72;100.00;98759.53;5058812;28;20965;-56
2023/01/16 00:37:59;;;;;;;0.60;0.57;;;;;;;6.88;99.60;98754.50;5065733;28;20451;-56
2023/01/16 00:40:25;;;;;;;0.30;0.20;;;;;;;6.86;99.70;98748.44;5065185;28;20470;-56
2023/01/16 00:42:51;;;;;;;0.40;0.20;;;;;;;6.57;100.00;98752.16;5058226;28;20497;-55
2023/01/16 00:45:18;;;;;;;0.40;0.30;;;;;;;6.61;100.00;98751.13;5059198;28;20455;-56
2023/01/16 00:47:45;;;;;;;0.37;0.37;;;;;;;6.80;100.00;98744.22;5065381;28;20459;-56
2023/01/16 00:50:11;;;;;;;0.30;0.20;;;;;;;6.69;99.78;98748.19;5065205;28;20450;-55
2023/01/16 00:52:38;;;;;;;2.53;0.67;;;;;;;6.75;100.00;98738.28;5065443;28;20938;-55
2023/01/16 00:55:04;;;;;;;0.30;0.20;;;;;;;6.95;99.08;98739.28;5065091;28;20503;-56
2023/01/16 00:57:31;;;;;;;0.30;0.20;;;;;;;6.81;99.62;98732.75;5065096;28;20801;-55
2023/01/16 00:59:57;;;;;;;0.40;0.23;;;;;;;6.66;100.00;98732.47;5064992;28;20865;-55
2023/01/16 01:02:24;;;;;;;0.30;0.20;;;;;;;6.63;100.00;98727.31;5045777;28;20458;-56
2023/01/16 01:04:50;;;;;;;0.73;0.33;;;;;;;6.73;100.00;98720.78;5058346;28;20454;-55
2023/01/16 01:07:17;;;;;;;0.30;0.20;;;;;;;6.53;100.00;98710.97;5045755;28;20446;-56
2023/01/16 01:09:43;;;;;;;5.73;0.80;;;;;;;6.66;100.00;98716.63;5057980;28;20465;-56
2023/01/16 01:12:09;;;;;;;0.30;0.30;;;;;;;6.60;100.00;98712.47;5064474;28;20497;-56
2023/01/16 01:14:36;;;;;;;7.20;0.77;;;;;;;6.54;100.00;98717.97;5065110;28;20507;-55
2023/01/16 01:17:02;;;;;;;0.40;0.40;;;;;;;6.78;100.00;98711.75;5061970;28;20446;-56
2023/01/16 01:19:29;;;;;;;1.80;0.47;;;;;;;6.69;100.00;98711.22;5062036;28;20481;-56
2023/01/16 01:21:55;;;;;;;0.30;0.10;;;;;;;6.79;100.00;98705.53;5068327;28;20477;-56
2023/01/16 01:24:22;;;;;;;0.30;0.10;;;;;;;6.76;100.00;98695.09;5068531;28;20849;-56
2023/01/16 01:26:48;;;;;;;0.57;0.50;;;;;;;6.79;100.00;98694.97;5062046;28;20536;-55
2023/01/16 01:29:14;;;;;;;0.43;0.27;;;;;;;6.81;100.00;98687.84;5061421;28;20962;-55
2023/01/16 01:31:41;;;;;;;13.17;2.80;;;;;;;6.82;99.35;98688.72;5068501;28;20862;-56
2023/01/16 01:34:07;;;;;;;0.70;0.40;;;;;;;6.97;99.81;98676.69;5067172;28;20525;-55
2023/01/16 01:36:34;;;;;;;0.40;0.33;;;;;;;6.86;99.56;98676.28;5063485;28;20453;-56
2023/01/16 01:39:00;;;;;;;0.30;0.10;;;;;;;7.03;98.91;98672.03;5061481;28;20496;-56
2023/01/16 01:41:26;;;;;;;0.30;0.20;;;;;;;7.02;98.52;98665.03;5066255;28;20459;-56
2023/01/16 01:43:55;;;;;;;0.30;0.20;;;;;;;6.88;98.58;98664.72;5068429;28;20774;-55
2023/01/16 01:46:30;;;;;;;0.50;0.30;;;;;;;6.88;99.43;98663.88;5063676;28;20534;-56
2023/01/16 01:49:06;;;;;;;0.60;0.30;;;;;;;7.04;99.42;98649.13;5061485;28;20857;-56
2023/01/16 01:51:39;;;;;;;0.30;0.20;;;;;;;6.96;98.71;98648.53;5063127;28;20540;-55
2023/01/16 01:54:18;;;;;;;0.30;0.20;;;;;;;7.18;98.36;98645.91;5068182;28;20819;-56
2023/01/16 01:57:04;;;;;;;0.50;0.50;;;;;;;7.12;99.01;98642.56;5068229;28;20443;-56
2023/01/16 01:59:40;;;;;;;0.60;0.60;;;;;;;7.00;98.67;98632.53;5064651;28;20442;-56
2023/01/16 02:02:12;;;;;;;0.30;0.20;;;;;;;7.01;98.49;98622.81;5060880;28;20469;-55
2023/01/16 02:04:43;;;;;;;0.30;0.20;;;;;;;7.00;98.94;98618.47;5062484;28;20451;-56
2023/01/16 02:07:13;;;;;;;4.30;2.10;;;;;;;7.15;98.15;98617.84;5068089;28;20442;-56
2023/01/16 02:09:40;;;;;;;0.53;0.30;;;;;;;6.99;98.24;98608.78;5067925;28;20926;-56
2023/01/16 02:12:13;;;;;;;1.30;0.40;;;;;;;6.99;99.35;98598.22;5061164;28;20517;-56
2023/01/16 02:14:43;;;;;;;0.27;0.20;;;;;;;6.84;100.00;98589.16;5060695;28;20446;-56
2023/01/16 02:20:00;;;;;;;0.30;0.20;;;;;;;6.92;98.70;98578.28;5067626;28;20810;-56
2023/01/16 02:22:51;;;;;;;0.60;0.60;;;;;;;6.90;99.66;98570.44;5054242;28;20943;-56
2023/01/16 02:25:47;;;;;;;7.30;0.57;;;;;;;6.86;99.54;98558.28;5051763;28;20503;-56
2023/01/16 02:28:35;;;;;;;0.50;0.50;;;;;;;6.86;100.00;98554.78;5041579;28;20505;-55
2023/01/16 02:31:50;;;;;;;0.60;0.60;;;;;;;6.75;99.87;98539.38;5060516;28;20467;-56
2023/01/16 02:35:05;;;;;;;1.40;0.40;;;;;;;6.55;100.00;98534.91;5018506;28;20522;-56
2023/01/16 02:38:10;;;;;;;0.40;0.40;;;;;;;6.64;99.88;98521.34;5063252;28;20445;-56
2023/01/16 02:40:48;;;;;;;0.60;0.40;;;;;;;6.58;99.06;98510.16;5014136;28;20472;-55
2023/01/16 02:43:29;;;;;;;1.80;0.50;;;;;;;6.56;99.70;98510.22;5064147;28;20525;-56
2023/01/16 02:46:32;;;;;;;0.30;0.20;;;;;;;6.76;99.88;98502.34;5058994;28;20449;-56
2023/01/16 02:49:02;;;;;;;0.50;0.40;;;;;;;6.64;100.00;98491.44;5039800;28;20464;-56
2023/01/16 02:51:43;;;;;;;0.30;0.20;;;;;;;6.75;100.00;98495.34;5062864;28;20490;-56
2023/01/16 02:54:32;;;;;;;0.30;0.20;;;;;;;6.79;99.60;98483.72;5066650;28;20455;-56
2023/01/16 02:57:08;;;;;;;0.30;0.20;;;;;;;6.79;100.00;98470.53;5066844;28;20458;-56
2023/01/16 02:59:35;;;;;;;4.83;0.40;;;;;;;6.78;100.00;98466.19;5064735;28;20453;-56
2023/01/16 03:02:03;;;;;;;1.70;0.30;;;;;;;6.77;100.00;98467.09;5059584;28;20589;-56
2023/01/16 03:04:35;;;;;;;0.30;0.30;;;;;;;6.67;100.00;98457.00;5062338;28;20447;-56
2023/01/16 03:07:20;;;;;;;0.83;0.77;;;;;;;6.78;100.00;98455.63;5066776;28;20797;-55
2023/01/16 03:10:12;;;;;;;0.93;0.50;;;;;;;6.79;99.55;98451.19;5066746;28;20446;-56
2023/01/16 03:12:41;;;;;;;0.30;0.20;;;;;;;6.84;99.53;98434.22;5064123;28;20485;-56
2023/01/16 03:15:27;;;;;;;1.43;0.60;;;;;;;6.91;100.00;98420.75;5059743;28;20450;-56
2023/01/16 03:18:31;;;;;;;0.30;0.20;;;;;;;7.03;98.87;98420.22;5059442;28;20545;-56
2023/01/16 03:21:08;;;;;;;0.30;0.20;;;;;;;7.08;98.78;98413.78;5060111;28;20846;-55
2023/01/16 03:23:54;;;;;;;0.30;0.20;;;;;;;6.91;98.36;98404.91;5048357;28;20495;-55
2023/01/16 03:26:30;;;;;;;0.30;0.10;;;;;;;6.73;97.99;98398.66;5059485;28;20442;-56
2023/01/16 03:29:16;;;;;;;0.30;0.20;;;;;;;6.68;98.85;98401.47;5060975;28;20446;-56
2023/01/16 03:31:55;;;;;;;1.37;0.20;;;;;;;6.62;97.42;98398.25;5048906;28;20493;-56
2023/01/16 03:34:34;;;;;;;0.30;0.20;;;;;;;6.81;97.27;98400.03;5056492;28;20439;-55
2023/01/16 03:37:17;;;;;;;0.67;0.53;;;;;;;6.94;98.18;98381.00;5065003;28;20450;-56
2023/01/16 03:39:50;;;;;;;0.30;0.20;;;;;;;6.67;96.67;98367.22;5048036;28;20503;-55
2023/01/16 03:42:27;;;;;;;1.03;0.93;;;;;;;6.52;97.81;98359.06;5058768;28;20463;-56
2023/01/16 03:44:59;;;;;;;0.30;0.20;;;;;;;6.61;98.47;98363.09;5062530;28;20518;-56
2023/01/16 03:47:35;;;;;;;0.60;0.30;;;;;;;6.54;98.54;98349.28;5064741;28;20447;-55
2023/01/16 03:50:06;;;;;;;1.07;1.07;;;;;;;6.52;98.99;98347.66;5064978;28;20445;-55
2023/01/16 03:52:42;;;;;;;0.40;0.40;;;;;;;6.60;98.72;98342.91;5058653;28;21052;-55
2023/01/16 03:55:19;;;;;;;0.30;0.20;;;;;;;6.55;98.47;98334.31;5059075;28;20446;-56
2023/01/16 03:58:05;;;;;;;0.43;0.33;;;;;;;6.58;97.98;98333.31;5063468;28;20533;-56
2023/01/16 04:00:44;;;;;;;0.53;0.20;;;;;;;6.57;98.88;98321.91;5065550;28;20827;-56
2023/01/16 04:03:19;;;;;;;0.40;0.30;;;;;;;6.65;98.82;98311.88;5065604;28;20841;-56
2023/01/16 04:05:54;;;;;;;0.50;0.30;;;;;;;6.45;98.95;98302.22;5060843;28;20987;-56
2023/01/16 04:08:29;;;;;;;0.20;0.10;;;;;;;6.68;98.95;98311.72;5058831;28;20449;-55
2023/01/16 04:10:56;;;;;;;0.40;0.40;;;;;;;6.76;98.18;98306.97;5061375;28;20466;-56
2023/01/16 04:13:30;;;;;;;0.30;0.20;;;;;;;6.75;97.29;98307.03;5065520;28;20494;-56
2023/01/16 04:15:59;;;;;;;0.30;0.20;;;;;;;6.77;96.57;98295.47;5064459;28;20503;-56
2023/01/16 04:18:30;;;;;;;5.10;0.97;;;;;;;7.00;95.52;98280.38;5058825;28;20445;-56
2023/01/16 04:20:57;;;;;;;0.80;0.80;;;;;;;7.04;94.99;98280.16;5058855;28;20466;-56
2023/01/16 04:23:23;;;;;;;0.50;0.47;;;;;;;7.00;95.88;98275.09;5059009;28;20542;-56
2023/01/16 04:25:50;;;;;;;0.30;0.20;;;;;;;6.89;96.52;98264.16;5058737;28;20454;-55
2023/01/16 04:28:17;;;;;;;0.30;0.20;;;;;;;6.98;96.82;98247.88;5065515;28;20450;-55
2023/01/16 04:30:43;;;;;;;0.20;0.20;;;;;;;6.91;96.77;98249.97;5065498;28;20469;-56
2023/01/16 04:33:09;;;;;;;0.43;0.43;;;;;;;6.93;96.33;98239.31;5058740;28;20496;-56
2023/01/16 04:35:36;;;;;;;0.30;0.20;;;;;;;6.87;95.86;98235.19;5058675;28;20485;-56
2023/01/16 04:38:02;;;;;;;2.53;1.60;;;;;;;7.18;95.88;98224.03;5064704;28;20443;-55
2023/01/16 04:40:29;;;;;;;0.30;0.10;;;;;;;7.11;95.07;98218.16;5065035;28;20815;-55
2023/01/16 04:42:55;;;;;;;0.30;0.20;;;;;;;7.00;95.76;98214.34;5059514;28;20456;-55
2023/01/16 04:45:22;;;;;;;0.40;0.20;;;;;;;6.96;96.10;98208.34;5058601;28;20450;-55
2023/01/16 04:47:50;;;;;;;0.30;0.20;;;;;;;7.03;94.70;98201.00;5064562;28;20446;-56
2023/01/16 04:50:18;;;;;;;1.63;0.20;;;;;;;7.11;95.58;98198.81;5065893;28;20470;-56
2023/01/16 04:52:45;;;;;;;0.30;0.20;;;;;;;7.02;94.86;98184.28;5063694;28;20485;-55
2023/01/16 04:55:12;;;;;;;0.23;0.20;;;;;;;7.16;95.09;98178.34;5062138;28;20451;-56
2023/01/16 04:57:39;;;;;;;0.40;0.20;;;;;;;7.17;94.47;98164.19;5066270;28;20443;-55
2023/01/16 05:00:07;;;;;;;1.57;0.73;;;;;;;6.96;95.27;98154.66;5069061;28;20906;-55
2023/01/16 05:02:33;;;;;;;0.30;0.27;;;;;;;6.97;94.78;98143.16;5064576;28;20821;-56
2023/01/16 05:05:00;;;;;;;0.40;0.30;;;;;;;7.12;94.77;98132.69;5062333;28;20492;-56
2023/01/16 05:07:27;;;;;;;0.20;0.20;;;;;;;7.27;94.28;98120.53;5066467;28;20487;-56
2023/01/16 05:09:54;;;;;;;0.40;0.20;;;;;;;7.24;93.42;98118.03;5068854;28;20553;-55
2023/01/16 05:12:21;;;;;;;0.33;0.27;;;;;;;7.06;94.09;98106.59;5064760;28;21037;-56
2023/01/16 05:14:47;;;;;;;1.80;0.70;;;;;;;6.95;94.73;98094.84;5061760;28;20936;-56
2023/01/16 05:17:13;;;;;;;0.93;0.63;;;;;;;7.02;95.05;98078.63;5066019;28;20967;-56
2023/01/16 05:19:40;;;;;;;0.37;0.37;;;;;;;7.02;94.84;98086.56;5068912;28;20446;-56
2023/01/16 05:22:06;;;;;;;0.33;0.30;;;;;;;7.12;94.21;98074.56;5064139;28;20469;-56
2023/01/16 05:24:33;;;;;;;0.57;0.57;;;;;;;7.11;95.18;98066.72;5061679;28;20989;-56
2023/01/16 05:27:00;;;;;;;0.40;0.20;;;;;;;6.94;94.89;98059.66;5065925;28;20453;-56
2023/01/16 05:29:26;;;;;;;1.23;0.20;;;;;;;6.78;95.75;98051.66;5068819;28;20461;-56
2023/01/16 05:31:52;;;;;;;0.60;0.60;;;;;;;6.93;95.12;98035.97;5064430;28;20476;-56
2023/01/16 05:34:19;;;;;;;0.30;0.10;;;;;;;6.80;95.95;98031.31;5058927;28;20451;-56
2023/01/16 05:36:45;;;;;;;0.50;0.50;;;;;;;6.52;95.15;98018.63;5065072;28;20446;-56
2023/01/16 05:39:12;;;;;;;1.17;0.50;;;;;;;6.57;95.64;98023.66;5061620;28;20824;-56
2023/01/16 05:41:38;;;;;;;0.80;0.40;;;;;;;6.73;94.85;98011.44;5064649;28;20477;-57
2023/01/16 05:44:06;;;;;;;0.57;0.50;;;;;;;6.67;95.05;98000.31;5068368;28;20525;-56
2023/01/16 05:46:32;;;;;;;0.20;0.20;;;;;;;6.54;94.30;97994.78;5065517;28;20445;-56
2023/01/16 05:48:59;;;;;;;12.93;0.80;;;;;;;6.53;94.78;97987.81;5061050;28;20824;-56
2023/01/16 05:51:25;;;;;;;0.30;0.20;;;;;;;6.74;93.88;97980.59;5064003;28;20540;-57
2023/01/16 05:53:51;;;;;;;0.90;0.63;;;;;;;6.62;94.20;97978.59;5068069;28;20495;-57
2023/01/16 05:56:21;;;;;;;0.30;0.20;;;;;;;6.48;95.35;97969.56;5065547;28;20503;-56
2023/01/16 05:58:48;;;;;;;0.30;0.20;;;;;;;6.58;94.49;97963.81;5061018;28;20895;-57
2023/01/16 06:01:14;;;;;;;5.40;0.70;;;;;;;6.53;95.02;97945.56;5063030;28;20720;-56
2023/01/16 06:03:41;;;;;;;0.50;0.37;;;;;;;6.65;94.25;97950.25;5067120;28;20453;-51
2023/01/16 06:06:07;;;;;;;0.70;0.70;;;;;;;6.39;93.69;97933.06;5066609;28;20484;-51
2023/01/16 06:08:34;;;;;;;0.40;0.40;;;;;;;6.13;94.48;97925.59;5067801;28;20454;-51
2023/01/16 06:11:00;;;;;;;1.30;1.20;;;;;;;5.44;98.17;97920.06;5054307;28;20987;-51
2023/01/16 06:13:27;;;;;;;0.30;0.20;;;;;;;4.86;100.00;97910.38;5073462;28;20515;-51
2023/01/16 06:15:53;;;;;;;0.30;0.20;;;;;;;4.63;100.00;97908.75;5062278;28;20530;-51
2023/01/16 06:18:20;;;;;;;0.50;0.40;;;;;;;4.62;100.00;97898.28;5067616;28;20447;-51
2023/01/16 06:20:46;;;;;;;0.30;0.20;;;;;;;4.52;100.00;97897.81;5067231;28;20544;-52
2023/01/16 06:23:13;;;;;;;0.30;0.20;;;;;;;4.45;100.00;97883.22;5068764;28;20447;-54
2023/01/16 06:25:40;;;;;;;4.60;0.80;;;;;;;4.55;100.00;97883.72;5054591;28;20455;-51
2023/01/16 06:28:06;;;;;;;0.73;0.70;;;;;;;4.62;100.00;97874.59;5067823;28;20450;-51
2023/01/16 06:30:33;;;;;;;0.37;0.37;;;;;;;4.62;100.00;97870.19;5067210;28;20531;-51
2023/01/16 06:32:59;;;;;;;0.27;0.20;;;;;;;4.83;100.00;97873.69;5054242;28;20486;-51
2023/01/16 06:35:25;;;;;;;0.40;0.30;;;;;;;4.83;100.00;97875.47;5054410;28;20443;-50
2023/01/16 06:37:52;;;;;;;0.30;0.10;;;;;;;4.78;100.00;97867.75;5062112;28;20542;-51
2023/01/16 06:40:18;;;;;;;1.40;1.40;;;;;;;4.75;100.00;97873.16;5041735;28;20464;-50
2023/01/16 06:42:46;;;;;;;0.60;0.60;;;;;;;4.78;99.57;97862.47;5061150;28;20448;-51
2023/01/16 06:45:13;;;;;;;0.30;0.30;;;;;;;4.96;99.36;97852.94;5034152;28;20439;-51
2023/01/16 06:47:39;;;;;;;0.30;0.20;;;;;;;4.90;98.96;97858.44;5066652;28;20455;-51
2023/01/16 06:50:06;;;;;;;0.30;0.20;;;;;;;4.90;98.49;97837.41;5066514;28;20450;-51
2023/01/16 06:52:34;;;;;;;0.50;0.20;;;;;;;4.89;98.40;97833.91;5068043;28;20490;-51
2023/01/16 06:55:01;;;;;;;1.57;0.50;;;;;;;4.82;99.45;97831.66;5066878;28;20457;-51
2023/01/16 06:57:27;;;;;;;0.30;0.20;;;;;;;4.83;99.36;97807.88;5046293;28;20470;-51
2023/01/16 06:59:54;;;;;;;0.30;0.30;;;;;;;5.02;98.65;97818.41;5059584;28;20450;-51
2023/01/16 07:02:20;;;;;;;0.30;0.20;;;;;;;4.97;98.19;97821.28;5067012;28;20457;-50
2023/01/16 07:04:47;;;;;;;0.30;0.20;;;;;;;5.13;97.89;97818.78;5053614;28;20813;-50
2023/01/16 07:07:13;;;;;;;1.50;0.97;;;;;;;4.93;97.23;97813.56;5067241;28;20447;-51
2023/01/16 07:09:39;;;;;;;0.40;0.30;;;;;;;4.90;97.82;97809.31;5053417;28;20457;-51
2023/01/16 07:12:06;;;;;;;0.40;0.40;;;;;;;4.80;97.11;97804.53;5053133;28;20470;-51
2023/01/16 07:22:47;;;;;;;0.60;0.60;;;;;;;4.95;96.15;97756.47;5049473;28;20804;-51
2023/01/16 07:25:19;;;;;;;0.30;0.20;;;;;;;4.80;96.23;97744.88;5073099;28;20502;-51
2023/01/16 07:27:48;;;;;;;0.53;0.30;;;;;;;4.80;96.51;97736.97;5057320;28;20546;-51
2023/01/16 07:30:20;;;;;;;0.20;0.10;;;;;;;4.79;96.36;97735.25;5062749;28;20473;-51
2023/01/16 07:32:47;;;;;;;0.30;0.20;;;;;;;4.87;95.87;97734.91;5046352;28;20531;-50
2023/01/16 07:35:14;;;;;;;0.30;0.20;;;;;;;4.70;96.95;97720.75;5062243;28;20443;-50
2023/01/16 07:37:42;;;;;;;0.27;0.17;;;;;;;4.78;97.00;97711.63;5058333;28;20447;-51
2023/01/16 07:40:09;;;;;;;0.70;0.70;;;;;;;4.80;97.30;97712.41;5041925;28;20451;-50
2023/01/16 07:42:35;;;;;;;0.30;0.20;;;;;;;4.78;97.36;97701.13;5045947;28;20443;-50
2023/01/16 07:45:02;;;;;;;0.20;0.10;;;;;;;4.98;97.63;97698.41;5052783;28;20832;-53
2023/01/16 07:47:29;;;;;;;11.33;0.77;;;;;;;4.79;97.28;97693.16;5044284;28;20442;-50
2023/01/16 07:49:56;;;;;;;0.27;0.20;;;;;;;4.75;97.49;97688.97;5061670;28;20446;-51
2023/01/16 07:52:23;;;;;;;1.13;0.47;;;;;;;4.77;97.36;97679.22;5056462;28;20856;-51
2023/01/16 07:54:49;;;;;;;0.30;0.20;;;;;;;4.86;97.35;97680.56;5061150;28;20459;-52
2023/01/16 07:57:16;;;;;;;0.60;0.30;;;;;;;4.93;97.02;97674.91;5066037;28;20465;-50
2023/01/16 07:59:42;;;;;;;0.50;0.50;;;;;;;4.95;96.71;97680.13;5064607;28;20446;-51
2023/01/16 08:02:10;;;;;;;0.30;0.20;;;;;;;4.99;96.03;97653.59;5040032;28;20486;-50
2023/01/16 08:04:36;;;;;;;0.30;0.20;;;;;;;5.17;95.58;97658.88;5064209;28;20446;-51
2023/01/16 08:07:03;;;;;;;0.30;0.20;;;;;;;4.99;95.94;97666.75;5040486;28;20454;-51
2023/01/16 08:09:29;;;;;;;0.77;0.30;;;;;;;4.96;96.25;97658.16;5064631;28;20457;-50
2023/01/16 08:11:55;;;;;;;0.30;0.27;;;;;;;4.95;97.00;97644.13;5058627;28;20466;-51
2023/01/16 08:14:22;;;;;;;0.30;0.20;;;;;;;4.95;97.71;97635.38;5048700;28;20495;-50
2023/01/16 08:16:48;;;;;;;0.20;0.20;;;;;;;4.98;98.43;97620.28;5055883;28;20445;-51
2023/01/16 08:19:15;;;;;;;0.30;0.20;;;;;;;4.90;99.91;97605.78;5060282;28;20534;-51
2023/01/16 08:21:41;;;;;;;0.33;0.23;;;;;;;5.01;100.00;97601.72;5065880;28;20474;-51
2023/01/16 08:24:09;;;;;;;0.63;0.30;;;;;;;5.14;100.00;97609.00;5052436;28;20447;-51
2023/01/16 08:26:35;;;;;;;0.30;0.30;;;;;;;5.25;100.00;97615.44;5064946;28;20568;-51
2023/01/16 08:29:02;;;;;;;0.20;0.20;;;;;;;5.26;100.00;97588.16;5040621;28;20814;-52
2023/01/16 08:31:28;;;;;;;5.70;0.43;;;;;;;5.31;100.00;97590.56;5069978;28;20479;-51
2023/01/16 08:33:55;;;;;;;0.20;0.20;;;;;;;5.15;100.00;97581.75;5059579;28;20544;-51
2023/01/16 08:36:22;;;;;;;1.33;0.63;;;;;;;5.17;100.00;97593.91;5039190;28;20450;-51
2023/01/16 08:38:50;;;;;;;0.30;0.10;;;;;;;5.25;100.00;97578.56;5057607;28;20457;-51
2023/01/16 08:52:34;;;;;;;0.30;0.20;;;;;;;5.45;100.00;97574.91;5039203;28;20447;-51
2023/01/16 08:55:00;;;;;;;0.20;0.20;;;;;;;5.64;100.00;97554.59;5052291;28;20446;-53
2023/01/16 08:57:27;;;;;;;5.20;0.50;;;;;;;5.81;100.00;97563.38;5038858;28;20443;-51
2023/01/16 08:59:56;;;;;;;1.80;0.73;;;;;;;5.88;100.00;97556.81;5065273;28;20552;-52
2023/01/16 09:02:24;;;;;;;1.80;1.33;;;;;;;5.75;100.00;97554.00;5058937;28;20468;-52
2023/01/16 09:04:51;;;;;;;0.30;0.20;;;;;;;5.58;100.00;97557.53;5058380;28;20450;-51
2023/01/16 09:07:17;;;;;;;3.50;0.57;;;;;;;5.68;100.00;97546.50;5070751;28;20512;-51
2023/01/16 09:09:43;;;;;;;0.30;0.17;;;;;;;5.50;100.00;97546.56;5058515;28;20455;-51
2023/01/16 09:14:57;;;;;;;0.30;0.30;;;;;;;5.49;100.00;97534.31;5055220;28;20489;-51
2023/01/16 09:17:25;;;;;;;0.30;0.20;;;;;;;5.62;100.00;97535.38;5061139;28;20493;-51
2023/01/16 09:19:52;;;;;;;0.20;0.20;;;;;;;5.69;100.00;97533.25;5069017;28;21048;-52
2023/01/16 09:22:19;;;;;;;0.30;0.20;;;;;;;5.49;100.00;97526.41;5071894;28;20453;-51
2023/01/16 09:24:45;;;;;;;0.30;0.20;;;;;;;5.38;100.00;97527.91;5058171;28;20452;-51
2023/01/16 09:27:18;;;;;;;6.90;0.43;;;;;;;5.14;100.00;97527.38;5060654;28;20461;-50
2023/01/16 09:29:45;;;;;;;0.37;0.30;;;;;;;5.01;100.00;97514.00;5065045;28;20489;-52
2023/01/16 09:32:12;;;;;;;0.20;0.10;;;;;;;5.14;100.00;97507.16;5051471;28;21049;-51
2023/01/16 09:34:38;;;;;;;2.60;1.00;;;;;;;5.24;100.00;97511.03;5057509;28;20486;-51
2023/01/16 09:37:05;;;;;;;0.30;0.20;;;;;;;5.24;100.00;97511.03;5067173;28;20446;-51
2023/01/16 09:39:32;;;;;;;0.83;0.60;;;;;;;5.42;100.00;97501.31;5068641;28;20508;-51
2023/01/16 09:45:14;;;;;;;0.20;0.10;;;;;;;5.36;100.00;97488.47;5059768;28;20464;-51
2023/01/16 09:47:45;;;;;;;0.80;0.30;;;;;;;5.36;100.00;97504.28;5041626;28;20457;-51
2023/01/16 09:50:28;;;;;;;0.60;0.60;;;;;;;5.38;100.00;97499.78;5068334;28;20444;-51
2023/01/16 09:58:39;;;;;;;2.37;1.20;;;;;;;5.52;100.00;97493.78;5068414;28;20442;-52
2023/01/16 10:01:15;;;;;;;0.30;0.20;;;;;;;5.50;100.00;97493.88;5064787;28;20477;-52
2023/01/16 10:03:44;;;;;;;2.43;0.73;;;;;;;5.41;100.00;97486.44;5056121;28;20500;-52
2023/01/16 10:06:20;;;;;;;0.30;0.20;;;;;;;5.49;100.00;97486.91;5067001;28;20806;-51
2023/01/16 10:09:02;;;;;;;3.40;0.87;;;;;;;5.41;100.00;97483.81;5062453;28;20438;-51
2023/01/16 10:11:47;;;;;;;0.30;0.20;;;;;;;5.68;100.00;97473.56;5060885;28;20842;-51
2023/01/16 10:14:51;;;;;;;0.20;0.20;;;;;;;5.64;100.00;97475.53;5063314;28;20528;-51
2023/01/16 10:17:43;;;;;;;5.70;2.17;;;;;;;5.81;100.00;97473.75;5054587;28;20446;-52
2023/01/16 10:20:24;;;;;;;0.30;0.20;;;;;;;5.56;100.00;97463.69;5073098;28;20446;-52
2023/01/16 10:22:58;;;;;;;0.57;0.40;;;;;;;5.68;100.00;97457.75;5059136;28;20457;-52
2023/01/16 10:25:35;;;;;;;0.30;0.20;;;;;;;5.51;100.00;97439.41;5064653;28;20441;-52
2023/01/16 10:28:07;;;;;;;0.37;0.37;;;;;;;5.74;100.00;97449.50;5069669;28;20443;-51
2023/01/16 10:30:47;;;;;;;0.30;0.20;;;;;;;5.83;100.00;97443.75;5066009;28;20462;-51
2023/01/16 10:33:23;;;;;;;0.30;0.20;;;;;;;5.65;100.00;97416.63;5066765;28;20514;-51
2023/01/16 10:35:51;;;;;;;0.30;0.20;;;;;;;5.78;100.00;97411.53;5067443;28;20442;-52
2023/01/16 10:38:45;;;;;;;0.30;0.20;;;;;;;5.84;100.00;97399.78;5063381;28;20537;-51
2023/01/16 10:50:18;;;;;;;0.30;0.20;;;;;;;6.01;100.00;97370.72;5061697;28;20474;-51
2023/01/16 10:53:04;;;;;;;0.30;0.20;;;;;;;6.15;100.00;97354.94;5063410;28;20442;-51
2023/01/16 10:55:34;;;;;;;0.80;0.20;;;;;;;6.02;100.00;97350.47;5066722;28;20455;-53
2023/01/16 10:58:21;;;;;;;0.30;0.20;;;;;;;6.37;100.00;97345.78;5065346;28;20889;-51
2023/01/16 11:00:49;;;;;;;0.30;0.20;;;;;;;6.04;100.00;97335.44;5065907;28;20995;-52
2023/01/16 11:03:23;;;;;;;0.30;0.20;;;;;;;6.09;100.00;97328.09;5066998;28;20519;-51
2023/01/16 11:05:50;;;;;;;0.20;0.20;;;;;;;6.14;100.00;97320.75;5062548;28;20544;-51
2023/01/16 11:08:18;;;;;;;0.30;0.20;;;;;;;6.41;100.00;97313.00;5060011;28;20831;-51
2023/01/16 11:10:48;;;;;;;0.20;0.10;;;;;;;6.54;100.00;97309.53;5064177;28;20475;-51
2023/01/16 11:18:58;;;;;;;0.30;0.30;;;;;;;6.59;99.72;97292.59;5053576;28;20439;-51
2023/01/16 11:21:30;;;;;;;0.20;0.20;;;;;;;6.60;99.41;97281.94;5066552;28;20528;-51
2023/01/16 11:24:14;;;;;;;0.40;0.27;;;;;;;6.51;100.00;97264.88;5053273;28;20463;-51
2023/01/16 11:26:47;;;;;;;0.60;0.30;;;;;;;6.61;100.00;97266.94;5046201;28;20450;-52
2023/01/16 11:29:17;;;;;;;0.30;0.23;;;;;;;6.77;100.00;97249.22;5059902;28;20451;-51
2023/01/16 11:32:08;;;;;;;0.30;0.30;;;;;;;6.84;99.12;97234.69;5065366;28;20506;-51
2023/01/16 11:34:37;;;;;;;0.30;0.20;;;;;;;6.94;99.06;97232.31;5033231;28;20488;-51
2023/01/16 11:37:07;;;;;;;0.30;0.30;;;;;;;7.03;97.95;97216.75;5065233;28;20834;-51
2023/01/16 11:39:35;;;;;;;0.30;0.20;;;;;;;6.92;97.58;97213.09;5066889;28;20494;-51
2023/01/16 11:47:52;;;;;;;0.37;0.20;;;;;;;7.22;97.10;97175.94;5059037;28;20934;-51
2023/01/16 11:50:28;;;;;;;1.73;0.20;;;;;;;6.96;95.33;97173.19;5058115;28;20468;-51
2023/01/16 11:52:54;;;;;;;0.30;0.20;;;;;;;7.30;95.40;97166.56;5061608;28;20441;-51
2023/01/16 11:55:32;;;;;;;0.63;0.30;;;;;;;7.30;95.12;97149.88;5059278;28;20493;-51
2023/01/16 11:58:15;;;;;;;0.37;0.30;;;;;;;7.29;95.08;97145.53;5062089;28;20468;-50
2023/01/16 12:00:47;;;;;;;0.30;0.20;;;;;;;7.23;95.87;97146.78;5065599;28;20533;-56
2023/01/16 12:03:31;;;;;;;0.30;0.23;;;;;;;7.29;95.58;97130.53;5065879;28;20446;-56
2023/01/16 12:06:00;;;;;;;1.07;0.30;;;;;;;7.46;95.50;97125.91;5061601;28;20903;-56
2023/01/16 12:08:48;;;;;;;0.47;0.30;;;;;;;7.38;93.91;97121.13;5059141;28;20564;-56
2023/01/16 12:11:41;;;;;;;0.30;0.20;;;;;;;7.37;94.52;97104.44;5059414;28;20475;-56
2023/01/16 12:14:40;;;;;;;0.47;0.30;;;;;;;7.37;96.39;97095.66;5052077;28;20486;-56
2023/01/16 12:17:12;;;;;;;0.30;0.20;;;;;;;7.46;96.48;97089.78;5064807;28;20489;-55
2023/01/16 12:19:51;;;;;;;4.23;0.37;;;;;;;7.60;95.08;97070.34;5065680;28;20456;-56
2023/01/16 12:22:54;;;;;;;0.30;0.30;;;;;;;7.70;95.31;97071.41;5062690;28;20984;-56
2023/01/16 12:25:33;;;;;;;0.30;0.20;;;;;;;7.60;95.44;97046.53;5063469;28;20462;-56
2023/01/16 12:28:12;;;;;;;0.40;0.40;;;;;;;7.24;97.11;97047.25;5065695;28;20857;-56
2023/01/16 12:31:06;;;;;;;0.33;0.30;;;;;;;7.24;97.80;97045.44;5064999;28;20466;-56
2023/01/16 12:33:44;;;;;;;3.43;0.40;;;;;;;7.42;97.74;97038.94;5062012;28;20505;-56
2023/01/16 12:36:36;;;;;;;0.30;0.30;;;;;;;6.98;97.97;97031.34;5057393;28;20446;-56
2023/01/16 12:39:13;;;;;;;0.53;0.50;;;;;;;6.88;97.52;97026.81;5058874;28;20496;-56
2023/01/16 12:44:52;;;;;;;0.40;0.40;;;;;;;7.09;98.22;97006.88;5050912;28;20445;-56
2023/01/16 12:47:51;;;;;;;0.30;0.20;;;;;;;7.31;98.16;96982.50;5058442;28;20452;-56
2023/01/16 12:50:29;;;;;;;0.30;0.20;;;;;;;7.43;97.76;96979.00;5058402;28;20462;-56
2023/01/16 12:53:21;;;;;;;0.30;0.20;;;;;;;7.29;97.26;96976.47;5060984;28;20951;-56
2023/01/16 12:56:14;;;;;;;0.30;0.30;;;;;;;7.41;97.67;96967.69;5065331;28;20485;-56
2023/01/16 12:58:46;;;;;;;0.30;0.20;;;;;;;7.58;97.42;96948.03;5065601;28;20464;-56